Time;durP1;ratioP1;P1;durP2;ratioP2;P2;SDS_P1;SDS_P2;PMS_P1;PMS_P2;Temp;Humidity;BMP_temperature;BMP_pressure;BME280_temperature;BME280_humidity;BME280_pressure;Samples;Min_cycle;Max_cycle;Signal;HPM_P1;HPM_P2
2022/01/14 00:09:56;;;;;;;6.80;3.50;;;;;;;7.89;100.00;100737.17;742700;1159;114395;-81
2022/01/14 00:40:00;;;;;;;3.68;1.65;;;;;;;7.88;100.00;100682.39;741281;1154;114438;-81
2022/01/14 00:55:05;;;;;;;3.70;1.63;;;;;;;7.95;100.00;100692.30;741050;1155;114033;-81
2022/01/14 01:10:09;;;;;;;2.35;1.23;;;;;;;7.89;100.00;100678.84;741991;1157;113702;-81
2022/01/14 01:25:14;;;;;;;2.28;1.35;;;;;;;7.84;100.00;100650.45;741926;1155;113971;-81
2022/01/14 01:40:19;;;;;;;5.75;1.50;;;;;;;7.87;100.00;100612.83;742211;1162;115059;-80
2022/01/14 01:55:23;;;;;;;7.03;1.73;;;;;;;7.83;100.00;100592.13;741735;1155;114011;-80
2022/01/14 02:10:26;;;;;;;2.70;1.10;;;;;;;7.70;100.00;100586.13;741653;1157;113995;-81
2022/01/14 02:25:29;;;;;;;6.43;1.33;;;;;;;7.59;100.00;100589.50;741845;1155;113584;-81
2022/01/14 02:40:32;;;;;;;1.48;1.18;;;;;;;7.63;100.00;100611.84;742479;1162;115076;-81
2022/01/14 02:55:35;;;;;;;1.88;1.28;;;;;;;7.61;100.00;100599.83;742490;1162;114075;-80
2022/01/14 03:10:40;;;;;;;2.70;1.10;;;;;;;7.43;100.00;100555.81;741994;1157;113725;-80
2022/01/14 03:25:48;;;;;;;1.35;1.15;;;;;;;7.33;100.00;100545.17;741337;1162;114339;-80
2022/01/14 03:40:51;;;;;;;2.28;1.25;;;;;;;7.33;100.00;100536.52;741239;1157;114565;-80
2022/01/14 03:55:53;;;;;;;2.20;1.38;;;;;;;7.24;100.00;100495.41;741070;1156;113613;-80
2022/01/14 04:11:14;;;;;;;2.05;1.25;;;;;;;7.32;100.00;100459.16;742024;1155;113725;-82
2022/01/14 04:26:17;;;;;;;1.90;1.40;;;;;;;7.25;100.00;100434.45;742718;1157;113764;-80
2022/01/14 04:41:19;;;;;;;3.63;3.10;;;;;;;7.29;100.00;100415.02;741377;1155;113559;-81
2022/01/14 04:56:21;;;;;;;2.90;1.67;;;;;;;7.26;100.00;100410.86;741351;1157;113805;-81
2022/01/14 05:11:35;;;;;;;25.20;13.63;;;;;;;7.33;100.00;100375.53;742378;1155;113951;-81
2022/01/14 05:26:37;;;;;;;47.63;14.23;;;;;;;7.26;100.00;100368.28;742727;1158;113902;-81
2022/01/14 05:41:40;;;;;;;63.58;26.63;;;;;;;7.47;100.00;100356.26;742170;1155;114226;-81
2022/01/14 05:56:42;;;;;;;128.20;51.53;;;;;;;7.57;100.00;100339.91;741468;1157;114090;-81
2022/01/14 06:11:44;;;;;;;45.33;18.38;;;;;;;7.75;100.00;100314.20;741846;1155;114410;-81
2022/01/14 06:26:46;;;;;;;18.68;7.28;;;;;;;7.93;100.00;100301.50;741382;1155;114154;-80
2022/01/14 06:41:54;;;;;;;7.73;3.75;;;;;;;8.15;100.00;100291.05;741279;1155;113720;-81
2022/01/14 06:56:56;;;;;;;9.43;4.90;;;;;;;8.31;100.00;100302.93;740959;1157;113699;-78
2022/01/14 07:12:01;;;;;;;96.63;37.95;;;;;;;8.33;100.00;100282.75;740325;1162;115190;-77
2022/01/14 07:27:03;;;;;;;17.17;8.23;;;;;;;8.51;100.00;100272.63;739681;1157;114918;-80
2022/01/14 07:42:07;;;;;;;5.08;3.25;;;;;;;8.52;100.00;100281.32;740981;1155;115239;-78
2022/01/14 07:57:09;;;;;;;10.25;5.30;;;;;;;8.98;100.00;100316.86;740040;1155;113622;-77
2022/01/14 08:12:12;;;;;;;34.58;16.55;;;;;;;9.22;100.00;100297.50;740297;1157;113894;-78
2022/01/14 08:27:14;;;;;;;117.65;47.20;;;;;;;8.63;100.00;100296.97;740677;1157;113979;-82
2022/01/14 08:42:17;;;;;;;168.28;74.98;;;;;;;8.53;100.00;100275.96;743479;1157;114104;-80
2022/01/14 08:57:20;;;;;;;54.33;23.85;;;;;;;8.37;100.00;100292.00;740951;1156;115318;-78
2022/01/14 09:12:23;;;;;;;12.30;6.43;;;;;;;8.62;100.00;100258.72;740153;1155;114498;-78
2022/01/14 09:27:28;;;;;;;14.93;6.18;;;;;;;8.71;100.00;100239.67;740998;1155;114583;-79
2022/01/14 09:42:35;;;;;;;7.93;3.80;;;;;;;8.75;100.00;100248.92;740610;1157;113671;-79
2022/01/14 09:57:38;;;;;;;26.05;15.68;;;;;;;8.92;100.00;100223.16;742886;1155;113611;-78
2022/01/14 10:12:41;;;;;;;76.78;37.40;;;;;;;8.80;100.00;100227.61;740786;1155;114399;-77
2022/01/14 10:27:48;;;;;;;23.02;14.55;;;;;;;8.98;100.00;100206.97;741297;1155;114058;-78
2022/01/14 10:43:01;;;;;;;39.97;16.53;;;;;;;9.32;100.00;100218.07;741986;1157;115470;-78
2022/01/14 10:58:27;;;;;;;42.03;12.80;;;;;;;9.73;96.61;100235.66;741034;1157;113898;-77
2022/01/14 11:13:30;;;;;;;25.08;8.75;;;;;;;9.72;94.85;100224.34;741171;1157;114177;-77
2022/01/14 11:28:35;;;;;;;37.45;13.73;;;;;;;9.69;93.38;100214.13;740303;1157;114746;-76
2022/01/14 11:43:52;;;;;;;177.25;73.23;;;;;;;9.56;91.10;100211.72;740163;1157;114771;-77
2022/01/14 11:59:18;;;;;;;27.03;10.33;;;;;;;9.58;89.36;100224.68;741425;1155;114607;-79
2022/01/14 12:14:36;;;;;;;18.88;6.90;;;;;;;9.55;88.21;100235.42;741050;1157;114487;-78
2022/01/14 12:29:47;;;;;;;26.33;11.50;;;;;;;11.53;82.94;100244.28;740563;1155;114665;-76
2022/01/14 12:44:52;;;;;;;21.73;8.45;;;;;;;10.86;79.19;100241.59;740009;1157;113832;-77
2022/01/14 12:59:54;;;;;;;24.70;12.10;;;;;;;10.20;78.10;100237.75;741344;1162;115026;-77
2022/01/14 13:15:04;;;;;;;27.48;10.85;;;;;;;10.21;76.84;100284.80;740159;1156;114052;-79
2022/01/14 13:30:20;;;;;;;10.30;4.70;;;;;;;10.89;73.25;100297.27;740371;1162;114003;-78
2022/01/14 13:45:25;;;;;;;44.80;12.93;;;;;;;9.87;73.89;100366.33;740115;1155;114058;-78
2022/01/14 14:00:36;;;;;;;19.90;8.17;;;;;;;7.63;77.61;100402.95;741946;1162;113864;-79
2022/01/14 14:16:41;;;;;;;41.67;15.27;;;;;;;7.02;79.98;100464.78;742059;1153;113597;-78
2022/01/14 14:32:37;;;;;;;53.20;19.58;;;;;;;6.92;80.14;100460.20;741980;1154;114132;-79
2022/01/14 14:47:48;;;;;;;11.65;6.65;;;;;;;7.11;77.69;100479.78;740737;1154;115013;-78
2022/01/14 15:02:54;;;;;;;10.68;4.53;;;;;;;7.26;77.35;100524.86;741171;1155;113660;-79
2022/01/14 15:33:10;;;;;;;46.50;19.35;;;;;;;6.88;75.62;100577.91;740046;1159;114511;-79
2022/01/14 15:48:14;;;;;;;44.83;15.68;;;;;;;6.66;76.28;100592.37;741416;1155;114302;-79
2022/01/14 16:03:17;;;;;;;50.30;17.30;;;;;;;6.47;74.55;100609.23;739821;1157;114181;-78
2022/01/14 16:18:21;;;;;;;36.80;15.55;;;;;;;6.25;73.58;100635.84;741213;1155;114030;-78
2022/01/14 16:33:44;;;;;;;46.13;17.88;;;;;;;6.04;72.91;100655.45;740988;1162;114362;-75
2022/01/14 16:48:48;;;;;;;101.27;35.40;;;;;;;5.78;72.55;100682.16;740376;1157;114824;-75
2022/01/14 17:03:51;;;;;;;58.95;24.13;;;;;;;5.60;71.98;100714.52;740192;1162;114011;-77
2022/01/14 17:18:54;;;;;;;97.90;32.80;;;;;;;5.46;71.99;100738.76;740468;1162;113918;-76
2022/01/14 17:33:58;;;;;;;105.48;35.98;;;;;;;5.26;71.68;100753.77;740234;1154;114464;-77
2022/01/14 17:49:01;;;;;;;138.10;47.40;;;;;;;5.09;71.45;100767.75;740769;1154;113888;-77
2022/01/14 18:04:05;;;;;;;424.13;120.18;;;;;;;5.00;71.70;100789.08;740218;1154;115162;-75
2022/01/14 18:19:09;;;;;;;223.63;87.70;;;;;;;4.81;71.21;100795.31;740476;1157;114190;-75
2022/01/14 18:34:12;;;;;;;90.27;30.83;;;;;;;4.68;70.97;100822.92;740421;1162;114819;-75
2022/01/14 18:49:15;;;;;;;61.98;26.33;;;;;;;4.54;71.29;100820.23;740782;1155;114032;-76
2022/01/14 19:04:18;;;;;;;55.28;22.98;;;;;;;4.41;72.81;100833.89;740433;1156;113804;-76
2022/01/14 19:19:21;;;;;;;53.68;22.40;;;;;;;4.34;72.39;100848.11;740609;1157;114954;-75
2022/01/14 19:34:24;;;;;;;57.00;29.08;;;;;;;4.32;73.07;100852.57;740743;1155;113670;-77
2022/01/14 19:49:27;;;;;;;75.95;25.65;;;;;;;4.18;72.25;100878.42;742967;1157;113731;-78
2022/01/14 20:04:30;;;;;;;40.53;19.20;;;;;;;4.09;72.72;100884.92;740809;1154;114274;-76
2022/01/14 20:19:34;;;;;;;23.13;9.95;;;;;;;3.97;72.46;100904.55;740366;1155;113816;-77
2022/01/14 20:34:37;;;;;;;43.13;18.35;;;;;;;3.88;73.04;100897.23;741443;1155;113446;-77
2022/01/14 20:49:40;;;;;;;63.20;23.55;;;;;;;3.69;74.08;100910.30;740232;1162;114821;-75
2022/01/14 21:04:42;;;;;;;27.17;12.33;;;;;;;3.67;73.26;100920.76;740563;1155;113752;-75
2022/01/14 21:19:46;;;;;;;29.00;12.13;;;;;;;3.59;73.25;100947.08;740792;1155;114176;-75
2022/01/14 21:34:48;;;;;;;267.60;60.10;;;;;;;3.46;74.61;100951.17;740998;1157;113781;-74
2022/01/14 21:49:50;;;;;;;27.10;10.83;;;;;;;3.48;74.26;100957.11;740828;1157;114274;-74
2022/01/14 22:04:53;;;;;;;19.30;6.23;;;;;;;3.47;74.47;100956.29;740327;1155;114031;-74
2022/01/14 22:19:56;;;;;;;46.93;13.10;;;;;;;3.45;74.43;100978.03;740186;1155;113629;-76
2022/01/14 22:34:58;;;;;;;92.53;25.15;;;;;;;3.41;73.17;100974.73;739785;1162;113733;-75
2022/01/14 22:50:00;;;;;;;59.48;17.50;;;;;;;3.30;72.88;100982.19;740202;1162;115393;-75
2022/01/14 23:05:07;;;;;;;37.43;13.08;;;;;;;3.20;73.63;100986.94;740848;1162;113958;-76
2022/01/14 23:20:10;;;;;;;13.08;4.75;;;;;;;3.10;74.38;100986.53;741250;1162;115350;-75
2022/01/14 23:35:14;;;;;;;38.47;12.63;;;;;;;3.06;74.64;100976.36;740484;1155;113622;-75
2022/01/14 23:50:20;;;;;;;24.00;9.50;;;;;;;2.99;75.44;100974.03;740937;1157;113965;-76
